sensor_id;sensor_type;location;lat;lon;timestamp;P1;durP1;ratioP1;P2;durP2;ratioP2
33347;SDS011;19707;51.158;17.124;2024-03-06T00:02:17;46.60;;;26.40;;
33347;SDS011;19707;51.158;17.124;2024-03-06T00:05:19;41.30;;;23.30;;
33347;SDS011;19707;51.158;17.124;2024-03-06T00:08:21;51.00;;;29.60;;
33347;SDS011;19707;51.158;17.124;2024-03-06T00:11:23;38.50;;;23.30;;
33347;SDS011;19707;51.158;17.124;2024-03-06T00:14:25;50.20;;;28.50;;
33347;SDS011;19707;51.158;17.124;2024-03-06T00:17:27;46.80;;;26.80;;
33347;SDS011;19707;51.158;17.124;2024-03-06T00:20:28;49.40;;;31.00;;
33347;SDS011;19707;51.158;17.124;2024-03-06T00:23:31;30.20;;;18.90;;
33347;SDS011;19707;51.158;17.124;2024-03-06T00:26:33;50.20;;;28.20;;
33347;SDS011;19707;51.158;17.124;2024-03-06T00:29:35;41.70;;;23.80;;
33347;SDS011;19707;51.158;17.124;2024-03-06T00:32:39;47.50;;;26.40;;
33347;SDS011;19707;51.158;17.124;2024-03-06T00:35:41;49.10;;;31.20;;
33347;SDS011;19707;51.158;17.124;2024-03-06T00:38:43;47.40;;;25.90;;
33347;SDS011;19707;51.158;17.124;2024-03-06T00:41:46;40.10;;;23.30;;
33347;SDS011;19707;51.158;17.124;2024-03-06T00:44:48;45.50;;;25.40;;
33347;SDS011;19707;51.158;17.124;2024-03-06T00:47:50;48.30;;;27.30;;
33347;SDS011;19707;51.158;17.124;2024-03-06T00:50:51;43.10;;;23.40;;
33347;SDS011;19707;51.158;17.124;2024-03-06T00:53:53;41.20;;;24.20;;
33347;SDS011;19707;51.158;17.124;2024-03-06T00:56:56;52.40;;;28.80;;
33347;SDS011;19707;51.158;17.124;2024-03-06T00:59:59;49.40;;;29.10;;
33347;SDS011;19707;51.158;17.124;2024-03-06T01:03:00;49.80;;;29.00;;
33347;SDS011;19707;51.158;17.124;2024-03-06T01:06:02;52.30;;;28.20;;
33347;SDS011;19707;51.158;17.124;2024-03-06T01:09:04;50.00;;;28.20;;
33347;SDS011;19707;51.158;17.124;2024-03-06T01:12:06;49.40;;;27.90;;
33347;SDS011;19707;51.158;17.124;2024-03-06T01:15:08;54.30;;;29.70;;
33347;SDS011;19707;51.158;17.124;2024-03-06T01:18:10;56.50;;;31.90;;
33347;SDS011;19707;51.158;17.124;2024-03-06T01:21:11;68.10;;;35.70;;
33347;SDS011;19707;51.158;17.124;2024-03-06T01:24:13;51.80;;;29.20;;
33347;SDS011;19707;51.158;17.124;2024-03-06T01:27:17;53.20;;;28.50;;
33347;SDS011;19707;51.158;17.124;2024-03-06T01:30:19;55.90;;;32.60;;
33347;SDS011;19707;51.158;17.124;2024-03-06T01:33:21;48.30;;;30.10;;
33347;SDS011;19707;51.158;17.124;2024-03-06T01:36:23;44.70;;;24.40;;
33347;SDS011;19707;51.158;17.124;2024-03-06T01:39:25;53.20;;;29.60;;
33347;SDS011;19707;51.158;17.124;2024-03-06T01:42:27;47.60;;;26.90;;
33347;SDS011;19707;51.158;17.124;2024-03-06T01:45:29;51.90;;;30.50;;
33347;SDS011;19707;51.158;17.124;2024-03-06T01:48:32;45.30;;;25.40;;
33347;SDS011;19707;51.158;17.124;2024-03-06T01:51:35;47.00;;;26.70;;
33347;SDS011;19707;51.158;17.124;2024-03-06T01:54:37;46.60;;;26.10;;
33347;SDS011;19707;51.158;17.124;2024-03-06T01:57:39;50.70;;;28.60;;
33347;SDS011;19707;51.158;17.124;2024-03-06T02:00:41;48.60;;;28.50;;
33347;SDS011;19707;51.158;17.124;2024-03-06T02:03:44;54.20;;;29.30;;
33347;SDS011;19707;51.158;17.124;2024-03-06T02:06:46;51.30;;;26.70;;
33347;SDS011;19707;51.158;17.124;2024-03-06T02:09:49;46.40;;;26.80;;
33347;SDS011;19707;51.158;17.124;2024-03-06T02:12:51;48.60;;;26.80;;
33347;SDS011;19707;51.158;17.124;2024-03-06T02:15:54;36.60;;;20.20;;
33347;SDS011;19707;51.158;17.124;2024-03-06T02:18:56;39.90;;;21.50;;
33347;SDS011;19707;51.158;17.124;2024-03-06T02:21:59;44.50;;;24.90;;
33347;SDS011;19707;51.158;17.124;2024-03-06T02:25:01;45.30;;;24.90;;
33347;SDS011;19707;51.158;17.124;2024-03-06T02:28:03;48.90;;;28.00;;
33347;SDS011;19707;51.158;17.124;2024-03-06T02:31:05;53.30;;;29.80;;
33347;SDS011;19707;51.158;17.124;2024-03-06T02:34:08;49.60;;;27.30;;
33347;SDS011;19707;51.158;17.124;2024-03-06T02:37:11;52.20;;;27.60;;
33347;SDS011;19707;51.158;17.124;2024-03-06T02:40:12;55.40;;;27.70;;
33347;SDS011;19707;51.158;17.124;2024-03-06T02:43:14;22.40;;;13.00;;
33347;SDS011;19707;51.158;17.124;2024-03-06T02:46:17;53.20;;;29.30;;
33347;SDS011;19707;51.158;17.124;2024-03-06T02:49:19;52.80;;;27.60;;
33347;SDS011;19707;51.158;17.124;2024-03-06T02:52:21;51.50;;;28.60;;
33347;SDS011;19707;51.158;17.124;2024-03-06T02:55:23;49.60;;;29.10;;
33347;SDS011;19707;51.158;17.124;2024-03-06T02:58:26;49.60;;;28.20;;
33347;SDS011;19707;51.158;17.124;2024-03-06T03:01:29;49.30;;;26.40;;
33347;SDS011;19707;51.158;17.124;2024-03-06T03:04:31;52.30;;;26.90;;
33347;SDS011;19707;51.158;17.124;2024-03-06T03:07:33;47.90;;;23.30;;
33347;SDS011;19707;51.158;17.124;2024-03-06T03:10:35;47.50;;;25.50;;
33347;SDS011;19707;51.158;17.124;2024-03-06T03:13:37;47.30;;;26.00;;
33347;SDS011;19707;51.158;17.124;2024-03-06T03:16:39;45.10;;;24.60;;
33347;SDS011;19707;51.158;17.124;2024-03-06T03:19:41;44.70;;;25.30;;
33347;SDS011;19707;51.158;17.124;2024-03-06T03:22:43;50.60;;;27.10;;
33347;SDS011;19707;51.158;17.124;2024-03-06T03:25:45;53.70;;;28.30;;
33347;SDS011;19707;51.158;17.124;2024-03-06T03:28:47;49.40;;;28.80;;
33347;SDS011;19707;51.158;17.124;2024-03-06T03:31:49;46.10;;;25.50;;
33347;SDS011;19707;51.158;17.124;2024-03-06T03:34:51;51.60;;;27.40;;
33347;SDS011;19707;51.158;17.124;2024-03-06T03:37:52;50.00;;;28.00;;
33347;SDS011;19707;51.158;17.124;2024-03-06T03:40:55;50.70;;;26.80;;
33347;SDS011;19707;51.158;17.124;2024-03-06T03:43:57;47.00;;;25.90;;
33347;SDS011;19707;51.158;17.124;2024-03-06T03:46:59;50.70;;;26.50;;
33347;SDS011;19707;51.158;17.124;2024-03-06T03:50:01;54.10;;;28.40;;
33347;SDS011;19707;51.158;17.124;2024-03-06T03:53:03;53.00;;;26.10;;
33347;SDS011;19707;51.158;17.124;2024-03-06T03:56:05;42.90;;;24.90;;
33347;SDS011;19707;51.158;17.124;2024-03-06T03:59:07;53.20;;;27.10;;
33347;SDS011;19707;51.158;17.124;2024-03-06T04:02:09;51.40;;;28.20;;
33347;SDS011;19707;51.158;17.124;2024-03-06T04:05:12;56.50;;;30.30;;
33347;SDS011;19707;51.158;17.124;2024-03-06T04:08:14;50.70;;;25.40;;
33347;SDS011;19707;51.158;17.124;2024-03-06T04:11:16;57.80;;;30.30;;
33347;SDS011;19707;51.158;17.124;2024-03-06T04:14:17;60.60;;;31.00;;
33347;SDS011;19707;51.158;17.124;2024-03-06T04:17:20;52.70;;;26.30;;
33347;SDS011;19707;51.158;17.124;2024-03-06T04:20:22;53.10;;;27.50;;
33347;SDS011;19707;51.158;17.124;2024-03-06T04:23:24;55.60;;;27.70;;
33347;SDS011;19707;51.158;17.124;2024-03-06T04:26:26;56.40;;;29.60;;
33347;SDS011;19707;51.158;17.124;2024-03-06T04:29:28;60.10;;;31.90;;
33347;SDS011;19707;51.158;17.124;2024-03-06T04:32:30;63.50;;;31.40;;
33347;SDS011;19707;51.158;17.124;2024-03-06T04:35:32;56.90;;;32.60;;
33347;SDS011;19707;51.158;17.124;2024-03-06T04:38:34;56.60;;;31.10;;
33347;SDS011;19707;51.158;17.124;2024-03-06T04:41:36;55.50;;;30.90;;
33347;SDS011;19707;51.158;17.124;2024-03-06T04:44:38;57.30;;;28.30;;
33347;SDS011;19707;51.158;17.124;2024-03-06T04:47:40;55.90;;;28.40;;
33347;SDS011;19707;51.158;17.124;2024-03-06T04:50:41;57.40;;;31.60;;
33347;SDS011;19707;51.158;17.124;2024-03-06T04:53:43;61.70;;;31.10;;
33347;SDS011;19707;51.158;17.124;2024-03-06T04:56:45;64.80;;;34.30;;
33347;SDS011;19707;51.158;17.124;2024-03-06T04:59:47;57.20;;;29.90;;
33347;SDS011;19707;51.158;17.124;2024-03-06T05:02:48;61.60;;;30.80;;
33347;SDS011;19707;51.158;17.124;2024-03-06T05:05:50;63.40;;;31.30;;
33347;SDS011;19707;51.158;17.124;2024-03-06T05:08:52;59.70;;;31.20;;
33347;SDS011;19707;51.158;17.124;2024-03-06T05:11:54;57.90;;;32.30;;
33347;SDS011;19707;51.158;17.124;2024-03-06T05:14:56;57.50;;;29.80;;
33347;SDS011;19707;51.158;17.124;2024-03-06T05:17:57;55.40;;;29.20;;
33347;SDS011;19707;51.158;17.124;2024-03-06T05:21:00;59.60;;;30.60;;
33347;SDS011;19707;51.158;17.124;2024-03-06T05:24:01;59.00;;;30.00;;
33347;SDS011;19707;51.158;17.124;2024-03-06T05:27:04;58.70;;;30.20;;
33347;SDS011;19707;51.158;17.124;2024-03-06T05:30:06;56.60;;;30.60;;
33347;SDS011;19707;51.158;17.124;2024-03-06T05:33:10;57.50;;;31.00;;
33347;SDS011;19707;51.158;17.124;2024-03-06T05:36:12;56.60;;;30.30;;
33347;SDS011;19707;51.158;17.124;2024-03-06T05:39:16;55.50;;;30.80;;
33347;SDS011;19707;51.158;17.124;2024-03-06T05:42:19;57.80;;;30.20;;
33347;SDS011;19707;51.158;17.124;2024-03-06T05:45:21;61.80;;;33.70;;
33347;SDS011;19707;51.158;17.124;2024-03-06T05:48:22;58.60;;;32.60;;
33347;SDS011;19707;51.158;17.124;2024-03-06T05:51:25;61.50;;;32.90;;
33347;SDS011;19707;51.158;17.124;2024-03-06T05:54:27;54.60;;;27.90;;
33347;SDS011;19707;51.158;17.124;2024-03-06T05:57:30;58.20;;;30.70;;
33347;SDS011;19707;51.158;17.124;2024-03-06T06:00:32;61.60;;;34.10;;
33347;SDS011;19707;51.158;17.124;2024-03-06T06:03:35;58.60;;;30.00;;
33347;SDS011;19707;51.158;17.124;2024-03-06T06:06:36;56.10;;;29.70;;
33347;SDS011;19707;51.158;17.124;2024-03-06T06:09:38;90.10;;;42.80;;
33347;SDS011;19707;51.158;17.124;2024-03-06T06:12:40;62.00;;;31.70;;
33347;SDS011;19707;51.158;17.124;2024-03-06T06:15:42;63.70;;;31.10;;
33347;SDS011;19707;51.158;17.124;2024-03-06T06:18:44;57.80;;;30.70;;
33347;SDS011;19707;51.158;17.124;2024-03-06T06:21:46;54.50;;;28.90;;
33347;SDS011;19707;51.158;17.124;2024-03-06T06:24:49;50.50;;;26.80;;
33347;SDS011;19707;51.158;17.124;2024-03-06T06:27:51;53.00;;;30.80;;
33347;SDS011;19707;51.158;17.124;2024-03-06T06:30:52;48.40;;;25.30;;
33347;SDS011;19707;51.158;17.124;2024-03-06T06:33:54;49.00;;;26.10;;
33347;SDS011;19707;51.158;17.124;2024-03-06T06:36:56;52.90;;;26.20;;
33347;SDS011;19707;51.158;17.124;2024-03-06T06:39:58;46.40;;;23.10;;
33347;SDS011;19707;51.158;17.124;2024-03-06T06:43:01;52.20;;;29.30;;
33347;SDS011;19707;51.158;17.124;2024-03-06T06:46:03;48.50;;;26.20;;
33347;SDS011;19707;51.158;17.124;2024-03-06T06:49:07;49.90;;;27.50;;
33347;SDS011;19707;51.158;17.124;2024-03-06T06:52:09;57.70;;;28.30;;
33347;SDS011;19707;51.158;17.124;2024-03-06T06:55:10;46.60;;;24.10;;
33347;SDS011;19707;51.158;17.124;2024-03-06T06:58:13;46.60;;;25.60;;
33347;SDS011;19707;51.158;17.124;2024-03-06T07:01:14;47.40;;;27.40;;
33347;SDS011;19707;51.158;17.124;2024-03-06T07:04:18;37.30;;;20.30;;
33347;SDS011;19707;51.158;17.124;2024-03-06T07:07:21;27.70;;;15.40;;
33347;SDS011;19707;51.158;17.124;2024-03-06T07:10:23;47.10;;;24.90;;
33347;SDS011;19707;51.158;17.124;2024-03-06T07:13:25;46.20;;;23.80;;
33347;SDS011;19707;51.158;17.124;2024-03-06T07:16:27;45.50;;;26.70;;
33347;SDS011;19707;51.158;17.124;2024-03-06T07:19:29;45.60;;;25.00;;
33347;SDS011;19707;51.158;17.124;2024-03-06T07:22:31;44.70;;;23.80;;
33347;SDS011;19707;51.158;17.124;2024-03-06T07:25:33;45.50;;;24.00;;
33347;SDS011;19707;51.158;17.124;2024-03-06T07:28:34;50.70;;;25.50;;
33347;SDS011;19707;51.158;17.124;2024-03-06T07:31:36;43.50;;;25.00;;
33347;SDS011;19707;51.158;17.124;2024-03-06T07:34:39;52.00;;;28.50;;
33347;SDS011;19707;51.158;17.124;2024-03-06T07:37:41;49.30;;;27.60;;
33347;SDS011;19707;51.158;17.124;2024-03-06T07:40:46;26.20;;;15.30;;
33347;SDS011;19707;51.158;17.124;2024-03-06T07:43:48;34.80;;;20.00;;
33347;SDS011;19707;51.158;17.124;2024-03-06T07:46:50;43.10;;;25.50;;
33347;SDS011;19707;51.158;17.124;2024-03-06T07:49:52;45.10;;;25.80;;
33347;SDS011;19707;51.158;17.124;2024-03-06T07:52:53;43.90;;;25.20;;
33347;SDS011;19707;51.158;17.124;2024-03-06T07:55:55;46.10;;;29.80;;
33347;SDS011;19707;51.158;17.124;2024-03-06T07:58:56;40.50;;;22.20;;
33347;SDS011;19707;51.158;17.124;2024-03-06T08:01:57;41.50;;;24.60;;
33347;SDS011;19707;51.158;17.124;2024-03-06T08:04:58;38.70;;;25.30;;
33347;SDS011;19707;51.158;17.124;2024-03-06T08:07:58;27.70;;;16.60;;
33347;SDS011;19707;51.158;17.124;2024-03-06T08:10:59;32.30;;;20.70;;
33347;SDS011;19707;51.158;17.124;2024-03-06T08:14:00;32.30;;;20.30;;
33347;SDS011;19707;51.158;17.124;2024-03-06T08:17:05;29.60;;;17.80;;
33347;SDS011;19707;51.158;17.124;2024-03-06T08:20:06;25.80;;;16.20;;
33347;SDS011;19707;51.158;17.124;2024-03-06T08:23:08;22.50;;;15.40;;
33347;SDS011;19707;51.158;17.124;2024-03-06T08:26:10;23.10;;;15.70;;
33347;SDS011;19707;51.158;17.124;2024-03-06T08:29:11;22.40;;;14.70;;
33347;SDS011;19707;51.158;17.124;2024-03-06T08:32:12;23.50;;;16.10;;
33347;SDS011;19707;51.158;17.124;2024-03-06T08:35:13;22.60;;;14.90;;
33347;SDS011;19707;51.158;17.124;2024-03-06T08:38:15;23.30;;;14.20;;
33347;SDS011;19707;51.158;17.124;2024-03-06T08:41:17;25.00;;;16.00;;
33347;SDS011;19707;51.158;17.124;2024-03-06T08:44:18;21.20;;;14.20;;
33347;SDS011;19707;51.158;17.124;2024-03-06T08:47:18;19.90;;;12.90;;
33347;SDS011;19707;51.158;17.124;2024-03-06T08:50:19;23.00;;;16.00;;
33347;SDS011;19707;51.158;17.124;2024-03-06T08:53:20;22.40;;;14.90;;
33347;SDS011;19707;51.158;17.124;2024-03-06T08:56:21;21.30;;;14.80;;
33347;SDS011;19707;51.158;17.124;2024-03-06T08:59:22;18.80;;;11.40;;
33347;SDS011;19707;51.158;17.124;2024-03-06T09:02:23;22.60;;;15.20;;
33347;SDS011;19707;51.158;17.124;2024-03-06T09:05:24;15.30;;;9.00;;
33347;SDS011;19707;51.158;17.124;2024-03-06T09:08:24;17.00;;;10.90;;
33347;SDS011;19707;51.158;17.124;2024-03-06T09:11:25;17.10;;;11.50;;
33347;SDS011;19707;51.158;17.124;2024-03-06T09:14:26;14.80;;;10.10;;
33347;SDS011;19707;51.158;17.124;2024-03-06T09:17:27;19.70;;;10.80;;
33347;SDS011;19707;51.158;17.124;2024-03-06T09:20:28;15.70;;;10.70;;
33347;SDS011;19707;51.158;17.124;2024-03-06T09:23:28;14.90;;;9.90;;
33347;SDS011;19707;51.158;17.124;2024-03-06T09:26:30;15.50;;;10.10;;
33347;SDS011;19707;51.158;17.124;2024-03-06T09:29:31;18.40;;;10.70;;
33347;SDS011;19707;51.158;17.124;2024-03-06T09:32:32;17.60;;;11.60;;
33347;SDS011;19707;51.158;17.124;2024-03-06T09:35:32;13.90;;;9.00;;
33347;SDS011;19707;51.158;17.124;2024-03-06T09:38:33;14.60;;;11.40;;
33347;SDS011;19707;51.158;17.124;2024-03-06T09:41:34;13.10;;;10.10;;
33347;SDS011;19707;51.158;17.124;2024-03-06T09:44:34;14.90;;;10.00;;
33347;SDS011;19707;51.158;17.124;2024-03-06T09:47:35;13.00;;;8.20;;
33347;SDS011;19707;51.158;17.124;2024-03-06T09:50:36;11.80;;;8.20;;
33347;SDS011;19707;51.158;17.124;2024-03-06T09:56:44;16.30;;;10.70;;
33347;SDS011;19707;51.158;17.124;2024-03-06T09:59:45;15.20;;;10.60;;
33347;SDS011;19707;51.158;17.124;2024-03-06T10:02:58;16.80;;;9.80;;
33347;SDS011;19707;51.158;17.124;2024-03-06T10:06:01;12.20;;;8.60;;
33347;SDS011;19707;51.158;17.124;2024-03-06T10:09:05;14.80;;;9.30;;
33347;SDS011;19707;51.158;17.124;2024-03-06T10:12:08;14.50;;;10.10;;
33347;SDS011;19707;51.158;17.124;2024-03-06T10:15:12;20.60;;;14.50;;
33347;SDS011;19707;51.158;17.124;2024-03-06T10:18:14;20.00;;;14.80;;
33347;SDS011;19707;51.158;17.124;2024-03-06T10:21:15;18.00;;;13.00;;
33347;SDS011;19707;51.158;17.124;2024-03-06T10:24:21;20.30;;;12.70;;
33347;SDS011;19707;51.158;17.124;2024-03-06T10:27:25;18.20;;;12.10;;
33347;SDS011;19707;51.158;17.124;2024-03-06T10:30:27;17.70;;;12.20;;
33347;SDS011;19707;51.158;17.124;2024-03-06T10:33:28;22.90;;;16.00;;
33347;SDS011;19707;51.158;17.124;2024-03-06T10:36:32;17.20;;;12.20;;
33347;SDS011;19707;51.158;17.124;2024-03-06T10:39:33;17.80;;;12.00;;
33347;SDS011;19707;51.158;17.124;2024-03-06T10:42:39;18.80;;;12.90;;
33347;SDS011;19707;51.158;17.124;2024-03-06T10:45:49;24.40;;;14.80;;
33347;SDS011;19707;51.158;17.124;2024-03-06T10:48:51;16.90;;;11.90;;
33347;SDS011;19707;51.158;17.124;2024-03-06T10:51:52;23.10;;;14.10;;
33347;SDS011;19707;51.158;17.124;2024-03-06T10:54:55;11.10;;;7.90;;
33347;SDS011;19707;51.158;17.124;2024-03-06T10:57:59;21.10;;;14.80;;
33347;SDS011;19707;51.158;17.124;2024-03-06T11:01:00;22.30;;;15.30;;
33347;SDS011;19707;51.158;17.124;2024-03-06T11:04:01;24.30;;;15.60;;
33347;SDS011;19707;51.158;17.124;2024-03-06T11:07:04;20.80;;;14.00;;
33347;SDS011;19707;51.158;17.124;2024-03-06T11:10:05;24.80;;;17.80;;
33347;SDS011;19707;51.158;17.124;2024-03-06T11:13:22;29.00;;;18.40;;
33347;SDS011;19707;51.158;17.124;2024-03-06T11:16:28;22.30;;;15.40;;
33347;SDS011;19707;51.158;17.124;2024-03-06T11:19:30;25.30;;;17.80;;
33347;SDS011;19707;51.158;17.124;2024-03-06T11:26:07;19.50;;;14.50;;
33347;SDS011;19707;51.158;17.124;2024-03-06T11:29:10;22.10;;;13.50;;
33347;SDS011;19707;51.158;17.124;2024-03-06T11:32:11;22.10;;;13.70;;
33347;SDS011;19707;51.158;17.124;2024-03-06T11:35:12;21.20;;;15.00;;
33347;SDS011;19707;51.158;17.124;2024-03-06T11:38:16;19.80;;;13.80;;
33347;SDS011;19707;51.158;17.124;2024-03-06T11:41:17;21.20;;;14.10;;
33347;SDS011;19707;51.158;17.124;2024-03-06T11:44:19;16.00;;;11.90;;
33347;SDS011;19707;51.158;17.124;2024-03-06T11:47:24;20.80;;;13.60;;
33347;SDS011;19707;51.158;17.124;2024-03-06T11:50:28;19.90;;;13.20;;
33347;SDS011;19707;51.158;17.124;2024-03-06T11:53:35;20.40;;;12.80;;
33347;SDS011;19707;51.158;17.124;2024-03-06T11:56:38;18.60;;;13.80;;
33347;SDS011;19707;51.158;17.124;2024-03-06T11:59:40;20.80;;;14.30;;
33347;SDS011;19707;51.158;17.124;2024-03-06T12:02:40;23.20;;;14.70;;
33347;SDS011;19707;51.158;17.124;2024-03-06T12:05:42;17.30;;;11.70;;
33347;SDS011;19707;51.158;17.124;2024-03-06T12:08:43;16.70;;;10.80;;
33347;SDS011;19707;51.158;17.124;2024-03-06T12:11:44;19.40;;;11.50;;
33347;SDS011;19707;51.158;17.124;2024-03-06T12:14:55;18.70;;;12.60;;
33347;SDS011;19707;51.158;17.124;2024-03-06T12:17:58;18.80;;;13.10;;
33347;SDS011;19707;51.158;17.124;2024-03-06T12:21:02;15.70;;;10.00;;
33347;SDS011;19707;51.158;17.124;2024-03-06T12:24:07;19.10;;;12.00;;
33347;SDS011;19707;51.158;17.124;2024-03-06T12:27:08;18.60;;;11.50;;
33347;SDS011;19707;51.158;17.124;2024-03-06T12:30:10;16.70;;;11.60;;
33347;SDS011;19707;51.158;17.124;2024-03-06T12:33:16;15.90;;;11.00;;
33347;SDS011;19707;51.158;17.124;2024-03-06T12:36:17;15.70;;;11.00;;
33347;SDS011;19707;51.158;17.124;2024-03-06T12:39:26;16.90;;;11.50;;
33347;SDS011;19707;51.158;17.124;2024-03-06T12:42:27;16.20;;;11.70;;
33347;SDS011;19707;51.158;17.124;2024-03-06T12:45:29;15.00;;;9.80;;
33347;SDS011;19707;51.158;17.124;2024-03-06T12:48:29;22.10;;;13.60;;
33347;SDS011;19707;51.158;17.124;2024-03-06T12:51:30;20.40;;;13.20;;
33347;SDS011;19707;51.158;17.124;2024-03-06T12:54:33;21.30;;;13.60;;
33347;SDS011;19707;51.158;17.124;2024-03-06T12:57:33;22.50;;;15.00;;
33347;SDS011;19707;51.158;17.124;2024-03-06T13:00:34;23.40;;;12.40;;
33347;SDS011;19707;51.158;17.124;2024-03-06T13:03:36;23.00;;;17.00;;
33347;SDS011;19707;51.158;17.124;2024-03-06T13:06:37;26.60;;;16.90;;
33347;SDS011;19707;51.158;17.124;2024-03-06T13:09:40;27.00;;;16.00;;
33347;SDS011;19707;51.158;17.124;2024-03-06T13:12:41;25.30;;;16.80;;
33347;SDS011;19707;51.158;17.124;2024-03-06T13:15:43;26.70;;;17.90;;
33347;SDS011;19707;51.158;17.124;2024-03-06T13:18:44;25.70;;;18.00;;
33347;SDS011;19707;51.158;17.124;2024-03-06T13:21:45;28.70;;;19.40;;
33347;SDS011;19707;51.158;17.124;2024-03-06T13:24:46;26.60;;;17.70;;
33347;SDS011;19707;51.158;17.124;2024-03-06T13:27:47;29.00;;;16.70;;
33347;SDS011;19707;51.158;17.124;2024-03-06T13:30:48;28.60;;;17.50;;
33347;SDS011;19707;51.158;17.124;2024-03-06T13:33:51;26.00;;;19.00;;
33347;SDS011;19707;51.158;17.124;2024-03-06T13:36:51;30.70;;;19.60;;
33347;SDS011;19707;51.158;17.124;2024-03-06T13:39:53;26.30;;;18.70;;
33347;SDS011;19707;51.158;17.124;2024-03-06T13:42:58;29.90;;;19.20;;
33347;SDS011;19707;51.158;17.124;2024-03-06T13:46:00;29.30;;;19.00;;
33347;SDS011;19707;51.158;17.124;2024-03-06T13:49:01;32.10;;;17.80;;
33347;SDS011;19707;51.158;17.124;2024-03-06T13:52:02;24.80;;;16.60;;
33347;SDS011;19707;51.158;17.124;2024-03-06T13:55:05;26.30;;;16.80;;
33347;SDS011;19707;51.158;17.124;2024-03-06T13:58:07;27.20;;;18.50;;
33347;SDS011;19707;51.158;17.124;2024-03-06T14:01:08;26.80;;;17.90;;
33347;SDS011;19707;51.158;17.124;2024-03-06T14:04:08;31.30;;;17.00;;
33347;SDS011;19707;51.158;17.124;2024-03-06T14:07:09;27.30;;;16.70;;
33347;SDS011;19707;51.158;17.124;2024-03-06T14:10:10;28.60;;;18.60;;
33347;SDS011;19707;51.158;17.124;2024-03-06T14:13:11;27.80;;;17.20;;
33347;SDS011;19707;51.158;17.124;2024-03-06T14:16:12;29.40;;;17.70;;
33347;SDS011;19707;51.158;17.124;2024-03-06T14:19:13;33.60;;;20.70;;
33347;SDS011;19707;51.158;17.124;2024-03-06T14:22:14;29.60;;;18.20;;
33347;SDS011;19707;51.158;17.124;2024-03-06T14:25:17;27.90;;;17.00;;
33347;SDS011;19707;51.158;17.124;2024-03-06T14:28:18;27.40;;;15.70;;
33347;SDS011;19707;51.158;17.124;2024-03-06T14:31:19;22.90;;;15.10;;
33347;SDS011;19707;51.158;17.124;2024-03-06T14:34:20;26.30;;;15.70;;
33347;SDS011;19707;51.158;17.124;2024-03-06T14:37:24;20.90;;;12.90;;
33347;SDS011;19707;51.158;17.124;2024-03-06T14:40:24;21.00;;;12.60;;
33347;SDS011;19707;51.158;17.124;2024-03-06T14:43:25;24.60;;;14.30;;
33347;SDS011;19707;51.158;17.124;2024-03-06T14:46:26;25.90;;;14.90;;
33347;SDS011;19707;51.158;17.124;2024-03-06T14:49:27;21.20;;;11.70;;
33347;SDS011;19707;51.158;17.124;2024-03-06T14:52:27;21.50;;;11.80;;
33347;SDS011;19707;51.158;17.124;2024-03-06T14:55:28;21.50;;;11.40;;
33347;SDS011;19707;51.158;17.124;2024-03-06T14:58:29;20.10;;;12.40;;
33347;SDS011;19707;51.158;17.124;2024-03-06T15:01:30;21.90;;;13.60;;
33347;SDS011;19707;51.158;17.124;2024-03-06T15:04:31;27.50;;;15.40;;
33347;SDS011;19707;51.158;17.124;2024-03-06T15:07:32;25.10;;;14.30;;
33347;SDS011;19707;51.158;17.124;2024-03-06T15:10:32;23.70;;;13.40;;
33347;SDS011;19707;51.158;17.124;2024-03-06T15:13:33;23.70;;;15.40;;
33347;SDS011;19707;51.158;17.124;2024-03-06T15:16:36;20.50;;;11.60;;
33347;SDS011;19707;51.158;17.124;2024-03-06T15:19:38;22.10;;;13.10;;
33347;SDS011;19707;51.158;17.124;2024-03-06T15:22:40;23.50;;;14.70;;
33347;SDS011;19707;51.158;17.124;2024-03-06T15:25:44;25.80;;;13.60;;
33347;SDS011;19707;51.158;17.124;2024-03-06T15:28:45;28.60;;;15.80;;
33347;SDS011;19707;51.158;17.124;2024-03-06T15:31:45;24.40;;;13.60;;
33347;SDS011;19707;51.158;17.124;2024-03-06T15:34:46;32.00;;;16.20;;
33347;SDS011;19707;51.158;17.124;2024-03-06T15:37:48;27.40;;;15.80;;
33347;SDS011;19707;51.158;17.124;2024-03-06T15:40:49;29.70;;;16.10;;
33347;SDS011;19707;51.158;17.124;2024-03-06T15:43:50;30.20;;;17.80;;
33347;SDS011;19707;51.158;17.124;2024-03-06T15:46:51;29.20;;;16.60;;
33347;SDS011;19707;51.158;17.124;2024-03-06T15:49:52;32.70;;;19.20;;
33347;SDS011;19707;51.158;17.124;2024-03-06T15:52:53;36.00;;;20.90;;
33347;SDS011;19707;51.158;17.124;2024-03-06T15:55:54;32.70;;;19.60;;
33347;SDS011;19707;51.158;17.124;2024-03-06T15:58:58;36.50;;;21.40;;
33347;SDS011;19707;51.158;17.124;2024-03-06T16:01:59;36.40;;;21.80;;
33347;SDS011;19707;51.158;17.124;2024-03-06T16:05:00;33.10;;;19.70;;
33347;SDS011;19707;51.158;17.124;2024-03-06T16:08:01;33.30;;;20.40;;
33347;SDS011;19707;51.158;17.124;2024-03-06T16:11:02;34.20;;;17.90;;
33347;SDS011;19707;51.158;17.124;2024-03-06T16:14:04;33.90;;;19.10;;
33347;SDS011;19707;51.158;17.124;2024-03-06T16:17:05;37.80;;;22.30;;
33347;SDS011;19707;51.158;17.124;2024-03-06T16:20:09;36.50;;;20.40;;
33347;SDS011;19707;51.158;17.124;2024-03-06T16:23:11;31.70;;;20.00;;
33347;SDS011;19707;51.158;17.124;2024-03-06T16:26:12;33.40;;;20.20;;
33347;SDS011;19707;51.158;17.124;2024-03-06T16:29:12;33.30;;;18.70;;
33347;SDS011;19707;51.158;17.124;2024-03-06T16:32:13;33.20;;;20.30;;
33347;SDS011;19707;51.158;17.124;2024-03-06T16:35:14;33.20;;;20.40;;
33347;SDS011;19707;51.158;17.124;2024-03-06T16:38:15;30.40;;;18.40;;
33347;SDS011;19707;51.158;17.124;2024-03-06T16:41:18;28.90;;;17.70;;
33347;SDS011;19707;51.158;17.124;2024-03-06T16:44:19;30.30;;;19.20;;
33347;SDS011;19707;51.158;17.124;2024-03-06T16:47:20;32.10;;;18.20;;
33347;SDS011;19707;51.158;17.124;2024-03-06T16:50:20;30.00;;;17.80;;
33347;SDS011;19707;51.158;17.124;2024-03-06T16:53:21;28.80;;;16.30;;
33347;SDS011;19707;51.158;17.124;2024-03-06T16:56:22;29.00;;;18.70;;
33347;SDS011;19707;51.158;17.124;2024-03-06T16:59:23;27.10;;;15.60;;
33347;SDS011;19707;51.158;17.124;2024-03-06T17:02:24;27.30;;;17.10;;
33347;SDS011;19707;51.158;17.124;2024-03-06T17:05:26;27.70;;;16.50;;
33347;SDS011;19707;51.158;17.124;2024-03-06T17:08:27;34.00;;;20.40;;
33347;SDS011;19707;51.158;17.124;2024-03-06T17:11:30;30.00;;;17.20;;
33347;SDS011;19707;51.158;17.124;2024-03-06T17:14:33;29.50;;;17.40;;
33347;SDS011;19707;51.158;17.124;2024-03-06T17:17:35;26.60;;;16.80;;
33347;SDS011;19707;51.158;17.124;2024-03-06T17:20:38;32.30;;;19.40;;
33347;SDS011;19707;51.158;17.124;2024-03-06T17:23:43;28.30;;;17.10;;
33347;SDS011;19707;51.158;17.124;2024-03-06T17:26:45;27.90;;;18.00;;
33347;SDS011;19707;51.158;17.124;2024-03-06T17:29:47;28.20;;;17.00;;
33347;SDS011;19707;51.158;17.124;2024-03-06T17:32:49;29.40;;;16.70;;
33347;SDS011;19707;51.158;17.124;2024-03-06T17:35:53;19.10;;;11.60;;